Aérodrome :
LOGIN :

S'inscrire | Disclaimer

   EN    FR    IT 

 










Légende :    VFR   VFR Marginal   IFR   IFR Intensif   IFR Très Intensif
Visi : 
Plafond : 
>= 8 km
>= 3000ft
5 à 8 km
1000 à 3000 ft
1500m à 5 km
500 à 1000 ft
800 à 1500m
200 à 500 ft
< 800m
< 200 ft
Symboles :   Orages  Brouillard  Fortes neiges  Fortes précipitations  Vent > 20 kt
SIGMETs :   Divers  Orages  Givrage  Turbulence  Onde Orograph.  Cendres Volcan.






- Altitude de l'aérodrome : 463 ft
- Code IATA : SZY
- AEROPORT FERMÉ.


EPSY - Szczytno

DERNIER METAR :
  • 261700Z 11012KT 070V150 9999 BKN036CB 20/16 Q0998

METARs EXPIRÉS :
  • 261630Z 12005KT 090V150 9999 FEW035 22/15 Q0997
  • 261600Z 11006KT 9999 SCT039 22/15 Q0997
  • 261530Z 13009KT 090V170 9999 SCT030CB 22/15 Q0996
  • 261500Z 14012G23KT 100V170 9999 SCT035CB 23/15 Q0996
  • 261430Z 13008KT 080V170 9999 FEW043 24/15 Q0996

TAF TAF EPSY
Valide du 26 à 15h jusqu'au 27 à 00h UTC


261430Z 2615/2624 11010KT CAVOK
TEMPO 2615/2624 11015G25KT 5000 -SHRA SCT015 BKN030CB



MET'MAP, la Météo Aéronautique d'un coup d'oeil ! - Copyright ORBIFLY Décembre 2007 - Disclaimer

ORBIFLY MET'MAP TEAM :

Programmation & Développement : Alexandra Zaïnal
Sur une idée originale de : Baudouin d'Aumeries
Assistance à la programmation : Marc-Olivier Méhu
Soutien technique & logistique : Manuel Goepfert

Contact : metmap@orbifly.com




SOURCES & CREDITS :

   NOAA